sensor_id;sensor_type;location;lat;lon;timestamp;P1;durP1;ratioP1;P2;durP2;ratioP2
7985;SDS011;4038;42.612;23.066;2022-11-06T00:00:39;36.78;;;33.28;;
7985;SDS011;4038;42.612;23.066;2022-11-06T00:03:04;36.28;;;32.70;;
7985;SDS011;4038;42.612;23.066;2022-11-06T00:05:31;37.30;;;32.97;;
7985;SDS011;4038;42.612;23.066;2022-11-06T00:08:17;40.25;;;32.85;;
7985;SDS011;4038;42.612;23.066;2022-11-06T00:10:50;37.50;;;33.88;;
7985;SDS011;4038;42.612;23.066;2022-11-06T00:13:16;37.35;;;33.70;;
7985;SDS011;4038;42.612;23.066;2022-11-06T00:15:41;35.00;;;31.42;;
7985;SDS011;4038;42.612;23.066;2022-11-06T00:18:07;36.90;;;31.83;;
7985;SDS011;4038;42.612;23.066;2022-11-06T00:20:32;38.65;;;32.53;;
7985;SDS011;4038;42.612;23.066;2022-11-06T00:22:58;36.53;;;32.90;;
7985;SDS011;4038;42.612;23.066;2022-11-06T00:25:24;35.38;;;31.45;;
7985;SDS011;4038;42.612;23.066;2022-11-06T00:27:49;35.45;;;32.03;;
7985;SDS011;4038;42.612;23.066;2022-11-06T00:30:15;35.53;;;31.65;;
7985;SDS011;4038;42.612;23.066;2022-11-06T00:32:40;34.35;;;31.10;;
7985;SDS011;4038;42.612;23.066;2022-11-06T00:35:06;34.28;;;29.75;;
7985;SDS011;4038;42.612;23.066;2022-11-06T00:37:33;35.10;;;31.52;;
7985;SDS011;4038;42.612;23.066;2022-11-06T00:39:59;35.00;;;31.63;;
7985;SDS011;4038;42.612;23.066;2022-11-06T00:42:24;34.97;;;31.50;;
7985;SDS011;4038;42.612;23.066;2022-11-06T00:44:50;42.85;;;32.28;;
7985;SDS011;4038;42.612;23.066;2022-11-06T00:47:15;36.83;;;32.22;;
7985;SDS011;4038;42.612;23.066;2022-11-06T00:49:41;35.55;;;32.10;;
7985;SDS011;4038;42.612;23.066;2022-11-06T00:52:06;33.53;;;30.48;;
7985;SDS011;4038;42.612;23.066;2022-11-06T00:54:31;35.40;;;31.67;;
7985;SDS011;4038;42.612;23.066;2022-11-06T00:56:57;34.73;;;30.30;;
7985;SDS011;4038;42.612;23.066;2022-11-06T00:59:22;34.90;;;31.45;;
7985;SDS011;4038;42.612;23.066;2022-11-06T01:01:48;36.57;;;32.87;;
7985;SDS011;4038;42.612;23.066;2022-11-06T01:04:15;45.53;;;32.50;;
7985;SDS011;4038;42.612;23.066;2022-11-06T01:06:43;36.17;;;31.00;;
7985;SDS011;4038;42.612;23.066;2022-11-06T01:09:13;40.35;;;31.48;;
7985;SDS011;4038;42.612;23.066;2022-11-06T01:11:41;37.92;;;32.03;;
7985;SDS011;4038;42.612;23.066;2022-11-06T01:14:10;40.40;;;32.95;;
7985;SDS011;4038;42.612;23.066;2022-11-06T01:16:37;37.25;;;33.15;;
7985;SDS011;4038;42.612;23.066;2022-11-06T01:19:03;39.42;;;31.98;;
7985;SDS011;4038;42.612;23.066;2022-11-06T01:21:30;38.10;;;32.88;;
7985;SDS011;4038;42.612;23.066;2022-11-06T01:24:03;36.22;;;31.58;;
7985;SDS011;4038;42.612;23.066;2022-11-06T01:26:34;36.83;;;32.22;;
7985;SDS011;4038;42.612;23.066;2022-11-06T01:29:00;36.80;;;32.95;;
7985;SDS011;4038;42.612;23.066;2022-11-06T01:31:28;36.40;;;32.65;;
7985;SDS011;4038;42.612;23.066;2022-11-06T01:33:55;35.13;;;31.55;;
7985;SDS011;4038;42.612;23.066;2022-11-06T01:36:22;36.47;;;31.80;;
7985;SDS011;4038;42.612;23.066;2022-11-06T01:38:49;39.83;;;33.22;;
7985;SDS011;4038;42.612;23.066;2022-11-06T01:41:35;36.25;;;32.40;;
7985;SDS011;4038;42.612;23.066;2022-11-06T01:46:57;37.87;;;31.77;;
7985;SDS011;4038;42.612;23.066;2022-11-06T01:49:24;41.87;;;31.70;;
7985;SDS011;4038;42.612;23.066;2022-11-06T01:51:53;37.43;;;33.23;;
7985;SDS011;4038;42.612;23.066;2022-11-06T01:54:22;38.23;;;32.60;;
7985;SDS011;4038;42.612;23.066;2022-11-06T01:56:50;36.70;;;32.03;;
7985;SDS011;4038;42.612;23.066;2022-11-06T01:59:20;35.13;;;31.37;;
7985;SDS011;4038;42.612;23.066;2022-11-06T02:01:49;38.10;;;30.60;;
7985;SDS011;4038;42.612;23.066;2022-11-06T02:04:22;41.60;;;31.23;;
7985;SDS011;4038;42.612;23.066;2022-11-06T02:06:49;41.87;;;33.80;;
7985;SDS011;4038;42.612;23.066;2022-11-06T02:09:15;42.43;;;32.87;;
7985;SDS011;4038;42.612;23.066;2022-11-06T02:11:49;43.03;;;33.20;;
7985;SDS011;4038;42.612;23.066;2022-11-06T02:14:19;33.70;;;29.97;;
7985;SDS011;4038;42.612;23.066;2022-11-06T02:17:16;40.93;;;33.37;;
7985;SDS011;4038;42.612;23.066;2022-11-06T02:28:31;35.30;;;31.80;;
7985;SDS011;4038;42.612;23.066;2022-11-06T02:31:02;34.17;;;30.83;;
7985;SDS011;4038;42.612;23.066;2022-11-06T02:33:35;34.87;;;31.37;;
7985;SDS011;4038;42.612;23.066;2022-11-06T02:36:08;35.47;;;31.73;;
7985;SDS011;4038;42.612;23.066;2022-11-06T02:38:46;36.83;;;32.70;;
7985;SDS011;4038;42.612;23.066;2022-11-06T02:41:19;36.25;;;32.30;;
7985;SDS011;4038;42.612;23.066;2022-11-06T02:43:49;35.60;;;31.87;;
7985;SDS011;4038;42.612;23.066;2022-11-06T02:46:23;36.00;;;32.30;;
7985;SDS011;4038;42.612;23.066;2022-11-06T02:48:55;36.05;;;32.28;;
7985;SDS011;4038;42.612;23.066;2022-11-06T02:51:27;38.50;;;32.07;;
7985;SDS011;4038;42.612;23.066;2022-11-06T02:53:57;37.35;;;33.50;;
7985;SDS011;4038;42.612;23.066;2022-11-06T02:56:26;36.03;;;32.27;;
7985;SDS011;4038;42.612;23.066;2022-11-06T02:59:10;35.83;;;32.17;;
7985;SDS011;4038;42.612;23.066;2022-11-06T03:01:41;35.63;;;31.57;;
7985;SDS011;4038;42.612;23.066;2022-11-06T03:04:22;35.77;;;32.00;;
7985;SDS011;4038;42.612;23.066;2022-11-06T03:09:53;34.30;;;31.10;;
7985;SDS011;4038;42.612;23.066;2022-11-06T03:14:55;36.73;;;33.13;;
7985;SDS011;4038;42.612;23.066;2022-11-06T03:22:52;36.53;;;32.27;;
7985;SDS011;4038;42.612;23.066;2022-11-06T03:25:21;35.07;;;31.43;;
7985;SDS011;4038;42.612;23.066;2022-11-06T03:28:04;36.70;;;32.23;;
7985;SDS011;4038;42.612;23.066;2022-11-06T03:30:39;36.87;;;32.87;;
7985;SDS011;4038;42.612;23.066;2022-11-06T03:33:12;36.40;;;32.57;;
7985;SDS011;4038;42.612;23.066;2022-11-06T03:35:40;34.67;;;31.13;;
7985;SDS011;4038;42.612;23.066;2022-11-06T03:38:15;35.40;;;31.63;;
7985;SDS011;4038;42.612;23.066;2022-11-06T03:40:57;35.77;;;32.00;;
7985;SDS011;4038;42.612;23.066;2022-11-06T03:43:30;34.53;;;31.17;;
7985;SDS011;4038;42.612;23.066;2022-11-06T03:46:00;35.60;;;32.00;;
7985;SDS011;4038;42.612;23.066;2022-11-06T03:48:33;35.30;;;31.73;;
7985;SDS011;4038;42.612;23.066;2022-11-06T03:51:05;38.03;;;32.30;;
7985;SDS011;4038;42.612;23.066;2022-11-06T03:56:24;41.63;;;34.80;;
7985;SDS011;4038;42.612;23.066;2022-11-06T03:58:55;39.23;;;32.50;;
7985;SDS011;4038;42.612;23.066;2022-11-06T04:01:23;36.10;;;32.53;;
7985;SDS011;4038;42.612;23.066;2022-11-06T04:03:56;35.27;;;31.83;;
7985;SDS011;4038;42.612;23.066;2022-11-06T04:06:34;34.53;;;30.93;;
7985;SDS011;4038;42.612;23.066;2022-11-06T04:09:05;34.60;;;31.17;;
7985;SDS011;4038;42.612;23.066;2022-11-06T04:11:51;37.10;;;33.10;;
7985;SDS011;4038;42.612;23.066;2022-11-06T04:14:37;36.40;;;32.80;;
7985;SDS011;4038;42.612;23.066;2022-11-06T04:17:06;35.70;;;32.20;;
7985;SDS011;4038;42.612;23.066;2022-11-06T04:19:36;37.80;;;33.20;;
7985;SDS011;4038;42.612;23.066;2022-11-06T04:28:56;37.57;;;33.73;;
7985;SDS011;4038;42.612;23.066;2022-11-06T04:30:57;38.47;;;34.10;;
7985;SDS011;4038;42.612;23.066;2022-11-06T04:41:44;36.60;;;32.97;;
7985;SDS011;4038;42.612;23.066;2022-11-06T04:44:24;35.85;;;32.05;;
7985;SDS011;4038;42.612;23.066;2022-11-06T04:47:02;39.43;;;33.27;;
7985;SDS011;4038;42.612;23.066;2022-11-06T04:49:31;39.83;;;33.77;;
7985;SDS011;4038;42.612;23.066;2022-11-06T04:52:00;37.97;;;34.27;;
7985;SDS011;4038;42.612;23.066;2022-11-06T04:54:29;38.03;;;32.43;;
7985;SDS011;4038;42.612;23.066;2022-11-06T04:56:57;37.60;;;33.57;;
7985;SDS011;4038;42.612;23.066;2022-11-06T04:59:33;36.67;;;33.03;;
7985;SDS011;4038;42.612;23.066;2022-11-06T05:02:00;36.97;;;33.53;;
7985;SDS011;4038;42.612;23.066;2022-11-06T05:04:26;37.80;;;33.63;;
7985;SDS011;4038;42.612;23.066;2022-11-06T05:06:51;45.55;;;33.85;;
7985;SDS011;4038;42.612;23.066;2022-11-06T05:09:17;41.33;;;32.63;;
7985;SDS011;4038;42.612;23.066;2022-11-06T05:11:42;44.23;;;33.93;;
7985;SDS011;4038;42.612;23.066;2022-11-06T05:14:08;37.83;;;33.83;;
7985;SDS011;4038;42.612;23.066;2022-11-06T05:16:33;43.37;;;33.67;;
7985;SDS011;4038;42.612;23.066;2022-11-06T05:18:58;37.47;;;33.30;;
7985;SDS011;4038;42.612;23.066;2022-11-06T05:21:24;37.27;;;33.47;;
7985;SDS011;4038;42.612;23.066;2022-11-06T05:24:08;38.80;;;34.57;;
7985;SDS011;4038;42.612;23.066;2022-11-06T05:26:34;39.87;;;36.00;;
7985;SDS011;4038;42.612;23.066;2022-11-06T05:28:59;37.67;;;33.50;;
7985;SDS011;4038;42.612;23.066;2022-11-06T05:31:25;38.50;;;34.50;;
7985;SDS011;4038;42.612;23.066;2022-11-06T05:33:50;36.30;;;32.60;;
7985;SDS011;4038;42.612;23.066;2022-11-06T05:36:16;38.53;;;34.50;;
7985;SDS011;4038;42.612;23.066;2022-11-06T05:38:41;39.20;;;33.23;;
7985;SDS011;4038;42.612;23.066;2022-11-06T05:41:06;36.67;;;32.67;;
7985;SDS011;4038;42.612;23.066;2022-11-06T05:43:32;37.70;;;33.57;;
7985;SDS011;4038;42.612;23.066;2022-11-06T05:45:57;35.73;;;32.07;;
7985;SDS011;4038;42.612;23.066;2022-11-06T05:48:24;36.70;;;32.73;;
7985;SDS011;4038;42.612;23.066;2022-11-06T05:50:51;47.95;;;33.40;;
7985;SDS011;4038;42.612;23.066;2022-11-06T05:53:17;48.73;;;34.03;;
7985;SDS011;4038;42.612;23.066;2022-11-06T05:55:44;45.90;;;34.20;;
7985;SDS011;4038;42.612;23.066;2022-11-06T05:58:11;38.08;;;34.05;;
7985;SDS011;4038;42.612;23.066;2022-11-06T06:00:37;38.13;;;34.03;;
7985;SDS011;4038;42.612;23.066;2022-11-06T06:03:03;39.57;;;35.37;;
7985;SDS011;4038;42.612;23.066;2022-11-06T06:05:28;42.92;;;35.38;;
7985;SDS011;4038;42.612;23.066;2022-11-06T06:07:54;42.08;;;35.17;;
7985;SDS011;4038;42.612;23.066;2022-11-06T06:10:19;39.40;;;34.33;;
7985;SDS011;4038;42.612;23.066;2022-11-06T06:12:44;40.53;;;36.00;;
7985;SDS011;4038;42.612;23.066;2022-11-06T06:15:10;43.67;;;34.80;;
7985;SDS011;4038;42.612;23.066;2022-11-06T06:17:35;43.85;;;34.22;;
7985;SDS011;4038;42.612;23.066;2022-11-06T06:20:01;42.75;;;34.97;;
7985;SDS011;4038;42.612;23.066;2022-11-06T06:22:26;41.90;;;32.78;;
7985;SDS011;4038;42.612;23.066;2022-11-06T06:24:51;39.75;;;34.22;;
7985;SDS011;4038;42.612;23.066;2022-11-06T06:27:17;46.30;;;34.13;;
7985;SDS011;4038;42.612;23.066;2022-11-06T06:29:42;37.80;;;33.78;;
7985;SDS011;4038;42.612;23.066;2022-11-06T06:32:08;41.33;;;34.70;;
7985;SDS011;4038;42.612;23.066;2022-11-06T06:34:33;71.85;;;56.67;;
7985;SDS011;4038;42.612;23.066;2022-11-06T06:36:58;79.38;;;59.78;;
7985;SDS011;4038;42.612;23.066;2022-11-06T06:39:24;78.13;;;59.75;;
7985;SDS011;4038;42.612;23.066;2022-11-06T06:41:49;58.22;;;48.53;;
7985;SDS011;4038;42.612;23.066;2022-11-06T06:44:15;54.60;;;42.97;;
7985;SDS011;4038;42.612;23.066;2022-11-06T06:46:40;45.88;;;39.78;;
7985;SDS011;4038;42.612;23.066;2022-11-06T06:49:06;44.55;;;37.83;;
7985;SDS011;4038;42.612;23.066;2022-11-06T06:51:31;55.30;;;40.30;;
7985;SDS011;4038;42.612;23.066;2022-11-06T06:53:57;46.17;;;40.65;;
7985;SDS011;4038;42.612;23.066;2022-11-06T06:56:22;49.55;;;38.55;;
7985;SDS011;4038;42.612;23.066;2022-11-06T06:58:48;41.80;;;37.53;;
7985;SDS011;4038;42.612;23.066;2022-11-06T07:01:13;49.50;;;40.05;;
7985;SDS011;4038;42.612;23.066;2022-11-06T07:03:39;43.85;;;39.03;;
7985;SDS011;4038;42.612;23.066;2022-11-06T07:06:04;52.17;;;40.10;;
7985;SDS011;4038;42.612;23.066;2022-11-06T07:08:31;44.67;;;38.72;;
7985;SDS011;4038;42.612;23.066;2022-11-06T07:11:00;42.38;;;37.65;;
7985;SDS011;4038;42.612;23.066;2022-11-06T07:13:27;52.13;;;38.97;;
7985;SDS011;4038;42.612;23.066;2022-11-06T07:15:53;45.35;;;38.63;;
7985;SDS011;4038;42.612;23.066;2022-11-06T07:18:18;43.63;;;39.28;;
7985;SDS011;4038;42.612;23.066;2022-11-06T07:20:44;51.70;;;40.55;;
7985;SDS011;4038;42.612;23.066;2022-11-06T07:23:10;49.63;;;42.85;;
7985;SDS011;4038;42.612;23.066;2022-11-06T07:25:35;52.75;;;46.70;;
7985;SDS011;4038;42.612;23.066;2022-11-06T07:28:01;65.32;;;49.85;;
7985;SDS011;4038;42.612;23.066;2022-11-06T07:30:28;68.65;;;53.70;;
7985;SDS011;4038;42.612;23.066;2022-11-06T07:32:54;77.13;;;54.25;;
7985;SDS011;4038;42.612;23.066;2022-11-06T07:35:19;69.07;;;57.53;;
7985;SDS011;4038;42.612;23.066;2022-11-06T07:37:44;81.40;;;59.03;;
7985;SDS011;4038;42.612;23.066;2022-11-06T07:40:10;70.05;;;54.90;;
7985;SDS011;4038;42.612;23.066;2022-11-06T07:42:35;75.03;;;55.20;;
7985;SDS011;4038;42.612;23.066;2022-11-06T07:45:01;68.28;;;52.95;;
7985;SDS011;4038;42.612;23.066;2022-11-06T07:47:28;58.30;;;46.05;;
7985;SDS011;4038;42.612;23.066;2022-11-06T07:49:54;50.33;;;42.75;;
7985;SDS011;4038;42.612;23.066;2022-11-06T07:52:20;51.15;;;41.10;;
7985;SDS011;4038;42.612;23.066;2022-11-06T07:54:46;43.53;;;37.90;;
7985;SDS011;4038;42.612;23.066;2022-11-06T07:57:12;45.25;;;40.35;;
7985;SDS011;4038;42.612;23.066;2022-11-06T07:59:37;45.58;;;40.88;;
7985;SDS011;4038;42.612;23.066;2022-11-06T08:02:03;50.47;;;39.28;;
7985;SDS011;4038;42.612;23.066;2022-11-06T08:04:28;48.03;;;40.88;;
7985;SDS011;4038;42.612;23.066;2022-11-06T08:06:55;45.38;;;39.97;;
7985;SDS011;4038;42.612;23.066;2022-11-06T08:09:21;45.53;;;40.70;;
7985;SDS011;4038;42.612;23.066;2022-11-06T08:11:49;44.55;;;39.70;;
7985;SDS011;4038;42.612;23.066;2022-11-06T08:14:14;45.53;;;40.65;;
7985;SDS011;4038;42.612;23.066;2022-11-06T08:16:39;49.35;;;41.45;;
7985;SDS011;4038;42.612;23.066;2022-11-06T08:19:05;45.25;;;40.58;;
7985;SDS011;4038;42.612;23.066;2022-11-06T08:21:30;46.03;;;41.28;;
7985;SDS011;4038;42.612;23.066;2022-11-06T08:23:56;44.35;;;40.20;;
7985;SDS011;4038;42.612;23.066;2022-11-06T08:26:21;47.58;;;39.92;;
7985;SDS011;4038;42.612;23.066;2022-11-06T08:28:46;44.00;;;39.08;;
7985;SDS011;4038;42.612;23.066;2022-11-06T08:31:12;40.97;;;36.95;;
7985;SDS011;4038;42.612;23.066;2022-11-06T08:33:37;39.95;;;36.03;;
7985;SDS011;4038;42.612;23.066;2022-11-06T08:36:03;47.20;;;36.97;;
7985;SDS011;4038;42.612;23.066;2022-11-06T08:38:30;39.42;;;35.20;;
7985;SDS011;4038;42.612;23.066;2022-11-06T08:40:56;43.13;;;38.70;;
7985;SDS011;4038;42.612;23.066;2022-11-06T08:43:21;41.08;;;36.83;;
7985;SDS011;4038;42.612;23.066;2022-11-06T08:45:50;36.60;;;32.85;;
7985;SDS011;4038;42.612;23.066;2022-11-06T08:48:16;37.72;;;34.10;;
7985;SDS011;4038;42.612;23.066;2022-11-06T08:50:41;35.38;;;32.13;;
7985;SDS011;4038;42.612;23.066;2022-11-06T08:53:07;38.50;;;34.58;;
7985;SDS011;4038;42.612;23.066;2022-11-06T08:55:33;39.72;;;35.97;;
7985;SDS011;4038;42.612;23.066;2022-11-06T08:58:00;43.30;;;35.50;;
7985;SDS011;4038;42.612;23.066;2022-11-06T09:00:27;43.15;;;35.08;;
7985;SDS011;4038;42.612;23.066;2022-11-06T09:02:56;36.42;;;32.42;;
7985;SDS011;4038;42.612;23.066;2022-11-06T09:05:26;37.60;;;32.33;;
7985;SDS011;4038;42.612;23.066;2022-11-06T09:07:52;35.00;;;31.25;;
7985;SDS011;4038;42.612;23.066;2022-11-06T09:10:18;37.28;;;33.40;;
7985;SDS011;4038;42.612;23.066;2022-11-06T09:12:44;34.83;;;30.60;;
7985;SDS011;4038;42.612;23.066;2022-11-06T09:15:09;34.28;;;30.83;;
7985;SDS011;4038;42.612;23.066;2022-11-06T09:17:40;34.47;;;31.05;;
7985;SDS011;4038;42.612;23.066;2022-11-06T09:20:13;40.13;;;31.63;;
7985;SDS011;4038;42.612;23.066;2022-11-06T09:22:40;34.67;;;31.52;;
7985;SDS011;4038;42.612;23.066;2022-11-06T09:25:06;36.60;;;30.88;;
7985;SDS011;4038;42.612;23.066;2022-11-06T09:27:32;32.33;;;29.55;;
7985;SDS011;4038;42.612;23.066;2022-11-06T09:29:58;33.08;;;29.92;;
7985;SDS011;4038;42.612;23.066;2022-11-06T09:32:23;34.45;;;31.35;;
7985;SDS011;4038;42.612;23.066;2022-11-06T09:34:49;33.97;;;31.23;;
7985;SDS011;4038;42.612;23.066;2022-11-06T09:37:15;33.30;;;30.55;;
7985;SDS011;4038;42.612;23.066;2022-11-06T09:39:41;34.95;;;31.73;;
7985;SDS011;4038;42.612;23.066;2022-11-06T09:47:39;36.13;;;32.97;;
7985;SDS011;4038;42.612;23.066;2022-11-06T09:50:11;37.75;;;34.45;;
7985;SDS011;4038;42.612;23.066;2022-11-06T09:53:00;36.85;;;33.38;;
7985;SDS011;4038;42.612;23.066;2022-11-06T09:55:33;37.55;;;34.38;;
7985;SDS011;4038;42.612;23.066;2022-11-06T09:58:17;39.75;;;35.95;;
7985;SDS011;4038;42.612;23.066;2022-11-06T10:00:49;38.42;;;35.20;;
7985;SDS011;4038;42.612;23.066;2022-11-06T10:03:31;38.83;;;35.25;;
7985;SDS011;4038;42.612;23.066;2022-11-06T10:06:03;38.03;;;34.33;;
7985;SDS011;4038;42.612;23.066;2022-11-06T10:08:29;39.63;;;35.97;;
7985;SDS011;4038;42.612;23.066;2022-11-06T10:16:29;45.47;;;41.22;;
7985;SDS011;4038;42.612;23.066;2022-11-06T10:26:44;42.95;;;39.05;;
7985;SDS011;4038;42.612;23.066;2022-11-06T10:34:44;39.42;;;35.88;;
7985;SDS011;4038;42.612;23.066;2022-11-06T10:37:30;39.78;;;36.35;;
7985;SDS011;4038;42.612;23.066;2022-11-06T10:39:59;37.90;;;34.58;;
7985;SDS011;4038;42.612;23.066;2022-11-06T10:42:30;37.97;;;34.60;;
7985;SDS011;4038;42.612;23.066;2022-11-06T10:45:03;38.80;;;35.50;;
7985;SDS011;4038;42.612;23.066;2022-11-06T10:47:50;37.05;;;33.90;;
7985;SDS011;4038;42.612;23.066;2022-11-06T10:50:18;36.38;;;33.45;;
7985;SDS011;4038;42.612;23.066;2022-11-06T10:55:36;37.55;;;34.03;;
7985;SDS011;4038;42.612;23.066;2022-11-06T10:58:13;37.13;;;33.85;;
7985;SDS011;4038;42.612;23.066;2022-11-06T11:00:47;37.10;;;33.60;;
7985;SDS011;4038;42.612;23.066;2022-11-06T11:06:12;38.70;;;35.38;;
7985;SDS011;4038;42.612;23.066;2022-11-06T11:08:48;39.33;;;35.70;;
7985;SDS011;4038;42.612;23.066;2022-11-06T11:13:47;43.58;;;39.67;;
7985;SDS011;4038;42.612;23.066;2022-11-06T11:16:26;45.03;;;40.80;;
7985;SDS011;4038;42.612;23.066;2022-11-06T11:18:53;45.83;;;41.85;;
7985;SDS011;4038;42.612;23.066;2022-11-06T11:21:21;43.92;;;40.03;;
7985;SDS011;4038;42.612;23.066;2022-11-06T11:26:24;45.03;;;40.83;;
7985;SDS011;4038;42.612;23.066;2022-11-06T11:28:58;45.80;;;41.38;;
7985;SDS011;4038;42.612;23.066;2022-11-06T11:31:30;47.50;;;43.00;;
7985;SDS011;4038;42.612;23.066;2022-11-06T11:34:02;46.33;;;41.97;;
7985;SDS011;4038;42.612;23.066;2022-11-06T11:39:27;44.58;;;40.53;;
7985;SDS011;4038;42.612;23.066;2022-11-06T11:42:14;44.17;;;40.22;;
7985;SDS011;4038;42.612;23.066;2022-11-06T11:44:41;46.33;;;42.40;;
7985;SDS011;4038;42.612;23.066;2022-11-06T11:47:18;46.42;;;42.22;;
7985;SDS011;4038;42.612;23.066;2022-11-06T11:49:48;44.92;;;40.92;;
7985;SDS011;4038;42.612;23.066;2022-11-06T11:52:16;45.25;;;41.28;;
7985;SDS011;4038;42.612;23.066;2022-11-06T11:54:46;45.95;;;41.78;;
7985;SDS011;4038;42.612;23.066;2022-11-06T11:57:18;44.42;;;40.53;;
7985;SDS011;4038;42.612;23.066;2022-11-06T11:59:53;43.30;;;39.60;;
7985;SDS011;4038;42.612;23.066;2022-11-06T12:02:34;41.55;;;37.95;;
7985;SDS011;4038;42.612;23.066;2022-11-06T12:05:07;44.53;;;40.42;;
7985;SDS011;4038;42.612;23.066;2022-11-06T12:07:40;43.40;;;39.70;;
7985;SDS011;4038;42.612;23.066;2022-11-06T12:13:22;41.75;;;38.22;;
7985;SDS011;4038;42.612;23.066;2022-11-06T12:18:19;40.28;;;36.72;;
7985;SDS011;4038;42.612;23.066;2022-11-06T12:26:47;36.17;;;33.28;;
7985;SDS011;4038;42.612;23.066;2022-11-06T12:40:37;35.15;;;32.17;;
7985;SDS011;4038;42.612;23.066;2022-11-06T12:48:43;35.30;;;32.55;;
7985;SDS011;4038;42.612;23.066;2022-11-06T12:57:20;35.45;;;32.60;;
7985;SDS011;4038;42.612;23.066;2022-11-06T13:00:07;36.15;;;33.30;;
7985;SDS011;4038;42.612;23.066;2022-11-06T13:05:18;36.30;;;33.00;;
7985;SDS011;4038;42.612;23.066;2022-11-06T13:13:23;33.33;;;30.65;;
7985;SDS011;4038;42.612;23.066;2022-11-06T13:19:06;33.85;;;31.13;;
7985;SDS011;4038;42.612;23.066;2022-11-06T13:22:00;33.42;;;30.63;;
7985;SDS011;4038;42.612;23.066;2022-11-06T13:24:52;33.35;;;30.38;;
7985;SDS011;4038;42.612;23.066;2022-11-06T13:27:41;33.92;;;31.23;;
7985;SDS011;4038;42.612;23.066;2022-11-06T13:30:17;34.40;;;31.25;;
7985;SDS011;4038;42.612;23.066;2022-11-06T13:32:46;33.92;;;30.98;;
7985;SDS011;4038;42.612;23.066;2022-11-06T13:35:27;37.70;;;34.08;;
7985;SDS011;4038;42.612;23.066;2022-11-06T13:37:53;33.95;;;30.88;;
7985;SDS011;4038;42.612;23.066;2022-11-06T13:43:10;32.65;;;29.88;;
7985;SDS011;4038;42.612;23.066;2022-11-06T13:51:02;33.75;;;31.05;;
7985;SDS011;4038;42.612;23.066;2022-11-06T13:54:00;34.40;;;31.60;;
7985;SDS011;4038;42.612;23.066;2022-11-06T13:56:52;33.47;;;30.50;;
7985;SDS011;4038;42.612;23.066;2022-11-06T14:07:25;34.67;;;31.85;;
7985;SDS011;4038;42.612;23.066;2022-11-06T14:09:54;34.65;;;31.75;;
7985;SDS011;4038;42.612;23.066;2022-11-06T14:12:21;34.42;;;31.40;;
7985;SDS011;4038;42.612;23.066;2022-11-06T14:14:47;34.30;;;31.60;;
7985;SDS011;4038;42.612;23.066;2022-11-06T14:19:58;34.50;;;31.50;;
7985;SDS011;4038;42.612;23.066;2022-11-06T14:22:27;32.80;;;30.02;;
7985;SDS011;4038;42.612;23.066;2022-11-06T14:24:54;32.30;;;29.60;;
7985;SDS011;4038;42.612;23.066;2022-11-06T14:30:04;33.42;;;30.38;;
7985;SDS011;4038;42.612;23.066;2022-11-06T14:32:35;33.65;;;30.70;;
7985;SDS011;4038;42.612;23.066;2022-11-06T14:37:53;34.90;;;32.00;;
7985;SDS011;4038;42.612;23.066;2022-11-06T14:40:35;33.47;;;30.67;;
7985;SDS011;4038;42.612;23.066;2022-11-06T14:43:47;34.05;;;31.15;;
7985;SDS011;4038;42.612;23.066;2022-11-06T14:46:03;34.22;;;31.42;;
7985;SDS011;4038;42.612;23.066;2022-11-06T14:48:48;34.33;;;31.48;;
7985;SDS011;4038;42.612;23.066;2022-11-06T14:51:21;32.95;;;30.17;;
7985;SDS011;4038;42.612;23.066;2022-11-06T14:53:50;32.50;;;29.90;;
7985;SDS011;4038;42.612;23.066;2022-11-06T14:56:23;34.55;;;31.60;;
7985;SDS011;4038;42.612;23.066;2022-11-06T15:01:28;32.78;;;30.08;;
7985;SDS011;4038;42.612;23.066;2022-11-06T15:03:56;32.67;;;30.08;;
7985;SDS011;4038;42.612;23.066;2022-11-06T15:08:55;34.63;;;31.90;;
7985;SDS011;4038;42.612;23.066;2022-11-06T15:16:24;35.65;;;32.47;;
7985;SDS011;4038;42.612;23.066;2022-11-06T15:18:51;33.47;;;30.77;;
7985;SDS011;4038;42.612;23.066;2022-11-06T15:21:20;33.47;;;30.73;;
7985;SDS011;4038;42.612;23.066;2022-11-06T15:26:14;35.22;;;32.35;;
7985;SDS011;4038;42.612;23.066;2022-11-06T15:29:01;36.25;;;33.25;;
7985;SDS011;4038;42.612;23.066;2022-11-06T15:31:43;34.45;;;31.85;;
7985;SDS011;4038;42.612;23.066;2022-11-06T15:36:57;35.55;;;33.05;;
7985;SDS011;4038;42.612;23.066;2022-11-06T15:42:34;35.47;;;32.92;;
7985;SDS011;4038;42.612;23.066;2022-11-06T15:45:05;35.97;;;33.00;;
7985;SDS011;4038;42.612;23.066;2022-11-06T15:47:33;36.67;;;33.72;;
7985;SDS011;4038;42.612;23.066;2022-11-06T15:50:20;37.42;;;34.60;;
7985;SDS011;4038;42.612;23.066;2022-11-06T15:52:47;36.05;;;33.35;;
7985;SDS011;4038;42.612;23.066;2022-11-06T15:55:24;37.03;;;33.95;;
7985;SDS011;4038;42.612;23.066;2022-11-06T15:57:53;35.50;;;32.70;;
7985;SDS011;4038;42.612;23.066;2022-11-06T16:00:31;36.22;;;33.40;;
7985;SDS011;4038;42.612;23.066;2022-11-06T16:02:58;35.88;;;33.15;;
7985;SDS011;4038;42.612;23.066;2022-11-06T16:05:26;37.58;;;34.78;;
7985;SDS011;4038;42.612;23.066;2022-11-06T16:07:54;38.45;;;35.38;;
7985;SDS011;4038;42.612;23.066;2022-11-06T16:10:21;38.15;;;35.33;;
7985;SDS011;4038;42.612;23.066;2022-11-06T16:12:48;39.40;;;36.55;;
7985;SDS011;4038;42.612;23.066;2022-11-06T16:18:05;47.30;;;43.00;;
7985;SDS011;4038;42.612;23.066;2022-11-06T16:23:19;56.88;;;51.65;;
7985;SDS011;4038;42.612;23.066;2022-11-06T16:25:56;58.65;;;53.08;;
7985;SDS011;4038;42.612;23.066;2022-11-06T16:28:24;58.75;;;53.00;;
7985;SDS011;4038;42.612;23.066;2022-11-06T16:30:51;52.80;;;48.08;;
7985;SDS011;4038;42.612;23.066;2022-11-06T16:33:22;40.67;;;37.47;;
7985;SDS011;4038;42.612;23.066;2022-11-06T16:35:48;37.88;;;35.17;;
7985;SDS011;4038;42.612;23.066;2022-11-06T16:40:53;36.40;;;33.47;;
7985;SDS011;4038;42.612;23.066;2022-11-06T16:43:20;38.50;;;35.22;;
7985;SDS011;4038;42.612;23.066;2022-11-06T16:45:53;40.47;;;37.13;;
7985;SDS011;4038;42.612;23.066;2022-11-06T16:50:56;42.15;;;38.83;;
7985;SDS011;4038;42.612;23.066;2022-11-06T16:53:27;44.30;;;40.35;;
7985;SDS011;4038;42.612;23.066;2022-11-06T16:56:14;45.53;;;41.42;;
7985;SDS011;4038;42.612;23.066;2022-11-06T16:58:47;46.10;;;41.78;;
7985;SDS011;4038;42.612;23.066;2022-11-06T17:01:19;50.72;;;45.65;;
7985;SDS011;4038;42.612;23.066;2022-11-06T17:03:48;44.97;;;40.95;;
7985;SDS011;4038;42.612;23.066;2022-11-06T17:06:22;43.47;;;39.67;;
7985;SDS011;4038;42.612;23.066;2022-11-06T17:11:50;43.75;;;39.85;;
7985;SDS011;4038;42.612;23.066;2022-11-06T17:14:17;43.42;;;39.75;;
7985;SDS011;4038;42.612;23.066;2022-11-06T17:16:45;47.90;;;43.45;;
7985;SDS011;4038;42.612;23.066;2022-11-06T17:19:13;48.83;;;44.35;;
7985;SDS011;4038;42.612;23.066;2022-11-06T17:21:39;46.95;;;42.55;;
7985;SDS011;4038;42.612;23.066;2022-11-06T17:24:04;43.65;;;39.78;;
7985;SDS011;4038;42.612;23.066;2022-11-06T17:26:30;42.30;;;38.67;;
7985;SDS011;4038;42.612;23.066;2022-11-06T17:28:57;44.50;;;40.63;;
7985;SDS011;4038;42.612;23.066;2022-11-06T17:31:23;44.40;;;40.70;;
7985;SDS011;4038;42.612;23.066;2022-11-06T17:33:50;43.33;;;39.47;;
7985;SDS011;4038;42.612;23.066;2022-11-06T17:36:17;41.78;;;38.28;;
7985;SDS011;4038;42.612;23.066;2022-11-06T17:38:45;39.85;;;36.42;;
7985;SDS011;4038;42.612;23.066;2022-11-06T17:41:11;43.05;;;39.25;;
7985;SDS011;4038;42.612;23.066;2022-11-06T17:43:37;37.42;;;34.33;;
7985;SDS011;4038;42.612;23.066;2022-11-06T17:46:03;39.25;;;35.63;;
7985;SDS011;4038;42.612;23.066;2022-11-06T17:48:28;38.67;;;35.30;;